sensor_id;sensor_type;location;lat;lon;timestamp;P1;durP1;ratioP1;P2;durP2;ratioP2
51090;SDS011;37136;43.614;3.908;2022-08-30T00:00:06;4.65;;;4.13;;
51090;SDS011;37136;43.614;3.908;2022-08-30T00:02:56;8.48;;;4.30;;
51090;SDS011;37136;43.614;3.908;2022-08-30T00:05:22;7.10;;;4.07;;
51090;SDS011;37136;43.614;3.908;2022-08-30T00:07:48;10.90;;;3.50;;
51090;SDS011;37136;43.614;3.908;2022-08-30T00:10:14;9.52;;;4.13;;
51090;SDS011;37136;43.614;3.908;2022-08-30T00:12:41;7.60;;;3.70;;
51090;SDS011;37136;43.614;3.908;2022-08-30T00:15:08;9.35;;;4.18;;
51090;SDS011;37136;43.614;3.908;2022-08-30T00:17:34;10.40;;;4.38;;
51090;SDS011;37136;43.614;3.908;2022-08-30T00:20:01;9.93;;;4.68;;
51090;SDS011;37136;43.614;3.908;2022-08-30T00:22:28;8.35;;;4.18;;
51090;SDS011;37136;43.614;3.908;2022-08-30T00:24:55;6.82;;;3.95;;
51090;SDS011;37136;43.614;3.908;2022-08-30T00:27:20;8.75;;;4.75;;
51090;SDS011;37136;43.614;3.908;2022-08-30T00:29:46;8.75;;;4.40;;
51090;SDS011;37136;43.614;3.908;2022-08-30T00:32:12;10.30;;;4.82;;
51090;SDS011;37136;43.614;3.908;2022-08-30T00:34:38;8.43;;;4.13;;
51090;SDS011;37136;43.614;3.908;2022-08-30T00:37:03;12.13;;;4.60;;
51090;SDS011;37136;43.614;3.908;2022-08-30T00:39:30;10.88;;;4.32;;
51090;SDS011;37136;43.614;3.908;2022-08-30T00:41:56;14.15;;;4.25;;
51090;SDS011;37136;43.614;3.908;2022-08-30T00:44:21;9.45;;;4.45;;
51090;SDS011;37136;43.614;3.908;2022-08-30T00:46:50;11.75;;;4.40;;
51090;SDS011;37136;43.614;3.908;2022-08-30T00:49:16;12.23;;;4.63;;
51090;SDS011;37136;43.614;3.908;2022-08-30T00:51:42;8.88;;;4.10;;
51090;SDS011;37136;43.614;3.908;2022-08-30T00:54:08;9.65;;;4.40;;
51090;SDS011;37136;43.614;3.908;2022-08-30T00:56:35;10.45;;;5.45;;
51090;SDS011;37136;43.614;3.908;2022-08-30T00:59:01;10.10;;;4.43;;
51090;SDS011;37136;43.614;3.908;2022-08-30T01:01:30;9.63;;;5.00;;
51090;SDS011;37136;43.614;3.908;2022-08-30T01:03:57;9.52;;;4.53;;
51090;SDS011;37136;43.614;3.908;2022-08-30T01:06:24;9.35;;;4.38;;
51090;SDS011;37136;43.614;3.908;2022-08-30T01:08:50;9.82;;;4.18;;
51090;SDS011;37136;43.614;3.908;2022-08-30T01:11:17;9.98;;;4.32;;
51090;SDS011;37136;43.614;3.908;2022-08-30T01:13:46;12.05;;;4.82;;
51090;SDS011;37136;43.614;3.908;2022-08-30T01:16:14;9.32;;;3.95;;
51090;SDS011;37136;43.614;3.908;2022-08-30T01:18:41;10.18;;;4.35;;
51090;SDS011;37136;43.614;3.908;2022-08-30T01:21:10;12.23;;;4.43;;
51090;SDS011;37136;43.614;3.908;2022-08-30T01:23:40;9.48;;;3.20;;
51090;SDS011;37136;43.614;3.908;2022-08-30T01:26:08;12.10;;;4.35;;
51090;SDS011;37136;43.614;3.908;2022-08-30T01:28:37;11.20;;;3.65;;
51090;SDS011;37136;43.614;3.908;2022-08-30T01:33:30;13.32;;;3.88;;
51090;SDS011;37136;43.614;3.908;2022-08-30T01:35:57;9.48;;;3.83;;
51090;SDS011;37136;43.614;3.908;2022-08-30T01:38:29;9.30;;;3.38;;
51090;SDS011;37136;43.614;3.908;2022-08-30T01:41:12;11.88;;;3.92;;
51090;SDS011;37136;43.614;3.908;2022-08-30T01:43:47;13.65;;;4.25;;
51090;SDS011;37136;43.614;3.908;2022-08-30T01:46:14;12.15;;;3.72;;
51090;SDS011;37136;43.614;3.908;2022-08-30T01:48:42;15.40;;;4.53;;
51090;SDS011;37136;43.614;3.908;2022-08-30T01:51:10;20.55;;;4.78;;
51090;SDS011;37136;43.614;3.908;2022-08-30T01:53:37;13.77;;;4.63;;
51090;SDS011;37136;43.614;3.908;2022-08-30T01:56:05;12.88;;;4.65;;
51090;SDS011;37136;43.614;3.908;2022-08-30T01:58:32;13.45;;;4.50;;
51090;SDS011;37136;43.614;3.908;2022-08-30T02:00:59;13.70;;;4.93;;
51090;SDS011;37136;43.614;3.908;2022-08-30T02:03:24;18.15;;;5.80;;
51090;SDS011;37136;43.614;3.908;2022-08-30T02:05:54;13.57;;;5.53;;
51090;SDS011;37136;43.614;3.908;2022-08-30T02:08:20;14.23;;;5.18;;
51090;SDS011;37136;43.614;3.908;2022-08-30T02:10:46;13.82;;;5.18;;
51090;SDS011;37136;43.614;3.908;2022-08-30T02:13:12;14.75;;;5.25;;
51090;SDS011;37136;43.614;3.908;2022-08-30T02:15:37;16.42;;;4.97;;
51090;SDS011;37136;43.614;3.908;2022-08-30T02:18:03;12.15;;;5.07;;
51090;SDS011;37136;43.614;3.908;2022-08-30T02:20:29;14.50;;;4.93;;
51090;SDS011;37136;43.614;3.908;2022-08-30T02:22:54;12.35;;;4.65;;
51090;SDS011;37136;43.614;3.908;2022-08-30T02:25:20;11.80;;;5.57;;
51090;SDS011;37136;43.614;3.908;2022-08-30T02:27:46;11.02;;;5.05;;
51090;SDS011;37136;43.614;3.908;2022-08-30T02:30:12;10.15;;;5.43;;
51090;SDS011;37136;43.614;3.908;2022-08-30T02:32:38;9.88;;;5.45;;
51090;SDS011;37136;43.614;3.908;2022-08-30T02:35:05;10.20;;;5.88;;
51090;SDS011;37136;43.614;3.908;2022-08-30T02:37:31;12.20;;;6.00;;
51090;SDS011;37136;43.614;3.908;2022-08-30T02:39:57;9.20;;;5.50;;
51090;SDS011;37136;43.614;3.908;2022-08-30T02:42:22;10.82;;;4.38;;
51090;SDS011;37136;43.614;3.908;2022-08-30T02:44:48;13.90;;;5.30;;
51090;SDS011;37136;43.614;3.908;2022-08-30T02:47:14;11.52;;;5.55;;
51090;SDS011;37136;43.614;3.908;2022-08-30T02:49:40;14.00;;;5.85;;
51090;SDS011;37136;43.614;3.908;2022-08-30T02:52:05;12.68;;;5.50;;
51090;SDS011;37136;43.614;3.908;2022-08-30T02:54:31;13.20;;;5.40;;
51090;SDS011;37136;43.614;3.908;2022-08-30T02:56:57;14.90;;;5.85;;
51090;SDS011;37136;43.614;3.908;2022-08-30T02:59:28;12.02;;;6.13;;
51090;SDS011;37136;43.614;3.908;2022-08-30T03:01:54;12.15;;;5.22;;
51090;SDS011;37136;43.614;3.908;2022-08-30T03:04:20;8.43;;;4.75;;
51090;SDS011;37136;43.614;3.908;2022-08-30T03:06:45;7.35;;;4.78;;
51090;SDS011;37136;43.614;3.908;2022-08-30T03:09:11;9.57;;;4.78;;
51090;SDS011;37136;43.614;3.908;2022-08-30T03:11:37;9.63;;;4.97;;
51090;SDS011;37136;43.614;3.908;2022-08-30T03:14:02;10.25;;;5.13;;
51090;SDS011;37136;43.614;3.908;2022-08-30T03:16:28;12.70;;;5.07;;
51090;SDS011;37136;43.614;3.908;2022-08-30T03:18:54;10.30;;;5.00;;
51090;SDS011;37136;43.614;3.908;2022-08-30T03:21:20;12.15;;;4.43;;
51090;SDS011;37136;43.614;3.908;2022-08-30T03:23:46;11.75;;;4.90;;
51090;SDS011;37136;43.614;3.908;2022-08-30T03:26:12;9.43;;;4.97;;
51090;SDS011;37136;43.614;3.908;2022-08-30T03:28:39;6.57;;;4.72;;
51090;SDS011;37136;43.614;3.908;2022-08-30T03:31:08;19.05;;;5.45;;
51090;SDS011;37136;43.614;3.908;2022-08-30T03:33:35;16.95;;;6.10;;
51090;SDS011;37136;43.614;3.908;2022-08-30T03:36:04;14.88;;;5.93;;
51090;SDS011;37136;43.614;3.908;2022-08-30T03:38:31;6.60;;;4.38;;
51090;SDS011;37136;43.614;3.908;2022-08-30T03:40:57;9.52;;;4.88;;
51090;SDS011;37136;43.614;3.908;2022-08-30T03:43:23;14.30;;;4.78;;
51090;SDS011;37136;43.614;3.908;2022-08-30T03:45:49;8.18;;;5.03;;
51090;SDS011;37136;43.614;3.908;2022-08-30T03:48:15;14.23;;;4.82;;
51090;SDS011;37136;43.614;3.908;2022-08-30T03:50:40;15.30;;;4.90;;
51090;SDS011;37136;43.614;3.908;2022-08-30T03:53:06;8.55;;;5.20;;
51090;SDS011;37136;43.614;3.908;2022-08-30T03:55:32;10.13;;;5.00;;
51090;SDS011;37136;43.614;3.908;2022-08-30T03:57:58;12.80;;;5.43;;
51090;SDS011;37136;43.614;3.908;2022-08-30T04:00:24;7.68;;;4.78;;
51090;SDS011;37136;43.614;3.908;2022-08-30T04:02:50;12.77;;;5.43;;
51090;SDS011;37136;43.614;3.908;2022-08-30T04:05:16;12.00;;;4.72;;
51090;SDS011;37136;43.614;3.908;2022-08-30T04:07:42;12.30;;;5.10;;
51090;SDS011;37136;43.614;3.908;2022-08-30T04:10:08;12.02;;;5.38;;
51090;SDS011;37136;43.614;3.908;2022-08-30T04:12:34;12.65;;;5.55;;
51090;SDS011;37136;43.614;3.908;2022-08-30T04:15:01;13.82;;;6.07;;
51090;SDS011;37136;43.614;3.908;2022-08-30T04:17:27;9.35;;;5.18;;
51090;SDS011;37136;43.614;3.908;2022-08-30T04:19:53;13.50;;;6.22;;
51090;SDS011;37136;43.614;3.908;2022-08-30T04:22:19;10.52;;;5.78;;
51090;SDS011;37136;43.614;3.908;2022-08-30T04:24:45;10.98;;;6.65;;
51090;SDS011;37136;43.614;3.908;2022-08-30T04:27:11;13.27;;;6.10;;
51090;SDS011;37136;43.614;3.908;2022-08-30T04:29:37;12.38;;;6.68;;
51090;SDS011;37136;43.614;3.908;2022-08-30T04:32:03;17.23;;;7.22;;
51090;SDS011;37136;43.614;3.908;2022-08-30T04:34:29;9.35;;;6.75;;
51090;SDS011;37136;43.614;3.908;2022-08-30T04:36:55;11.90;;;7.80;;
51090;SDS011;37136;43.614;3.908;2022-08-30T04:39:21;10.00;;;7.70;;
51090;SDS011;37136;43.614;3.908;2022-08-30T04:41:47;18.52;;;7.70;;
51090;SDS011;37136;43.614;3.908;2022-08-30T04:44:12;11.15;;;7.40;;
51090;SDS011;37136;43.614;3.908;2022-08-30T04:46:39;12.23;;;7.32;;
51090;SDS011;37136;43.614;3.908;2022-08-30T04:49:05;12.20;;;8.10;;
51090;SDS011;37136;43.614;3.908;2022-08-30T04:51:32;21.23;;;8.65;;
51090;SDS011;37136;43.614;3.908;2022-08-30T04:53:57;12.85;;;8.95;;
51090;SDS011;37136;43.614;3.908;2022-08-30T04:56:23;14.55;;;8.50;;
51090;SDS011;37136;43.614;3.908;2022-08-30T04:58:50;14.43;;;8.90;;
51090;SDS011;37136;43.614;3.908;2022-08-30T05:01:23;14.55;;;9.00;;
51090;SDS011;37136;43.614;3.908;2022-08-30T05:03:53;15.10;;;9.25;;
51090;SDS011;37136;43.614;3.908;2022-08-30T05:06:20;20.38;;;9.60;;
51090;SDS011;37136;43.614;3.908;2022-08-30T05:08:46;15.88;;;9.18;;
51090;SDS011;37136;43.614;3.908;2022-08-30T05:11:12;17.80;;;9.55;;
51090;SDS011;37136;43.614;3.908;2022-08-30T05:13:40;21.90;;;9.80;;
51090;SDS011;37136;43.614;3.908;2022-08-30T05:16:06;17.15;;;9.68;;
51090;SDS011;37136;43.614;3.908;2022-08-30T05:18:33;17.67;;;9.00;;
51090;SDS011;37136;43.614;3.908;2022-08-30T05:21:04;13.38;;;9.00;;
51090;SDS011;37136;43.614;3.908;2022-08-30T05:23:31;17.95;;;9.77;;
51090;SDS011;37136;43.614;3.908;2022-08-30T05:25:57;16.58;;;9.50;;
51090;SDS011;37136;43.614;3.908;2022-08-30T05:28:23;21.92;;;9.57;;
51090;SDS011;37136;43.614;3.908;2022-08-30T05:30:48;16.25;;;9.93;;
51090;SDS011;37136;43.614;3.908;2022-08-30T05:33:14;21.40;;;9.57;;
51090;SDS011;37136;43.614;3.908;2022-08-30T05:35:40;15.48;;;9.50;;
51090;SDS011;37136;43.614;3.908;2022-08-30T05:38:06;19.27;;;9.13;;
51090;SDS011;37136;43.614;3.908;2022-08-30T05:40:31;23.20;;;10.90;;
51090;SDS011;37136;43.614;3.908;2022-08-30T05:42:57;19.35;;;9.70;;
51090;SDS011;37136;43.614;3.908;2022-08-30T05:45:23;19.85;;;10.38;;
51090;SDS011;37136;43.614;3.908;2022-08-30T05:47:48;16.67;;;9.05;;
51090;SDS011;37136;43.614;3.908;2022-08-30T05:50:14;14.32;;;9.35;;
51090;SDS011;37136;43.614;3.908;2022-08-30T05:52:41;12.77;;;9.40;;
51090;SDS011;37136;43.614;3.908;2022-08-30T05:55:09;11.10;;;9.15;;
51090;SDS011;37136;43.614;3.908;2022-08-30T05:57:37;25.50;;;10.00;;
51090;SDS011;37136;43.614;3.908;2022-08-30T06:00:05;16.10;;;9.13;;
51090;SDS011;37136;43.614;3.908;2022-08-30T06:02:33;15.63;;;9.68;;
51090;SDS011;37136;43.614;3.908;2022-08-30T06:05:00;9.95;;;8.88;;
51090;SDS011;37136;43.614;3.908;2022-08-30T06:07:30;16.65;;;8.95;;
51090;SDS011;37136;43.614;3.908;2022-08-30T06:09:56;13.40;;;8.70;;
51090;SDS011;37136;43.614;3.908;2022-08-30T06:12:22;19.48;;;9.35;;
51090;SDS011;37136;43.614;3.908;2022-08-30T06:14:47;13.88;;;8.73;;
51090;SDS011;37136;43.614;3.908;2022-08-30T06:17:13;15.63;;;9.15;;
51090;SDS011;37136;43.614;3.908;2022-08-30T06:19:39;14.52;;;9.20;;
51090;SDS011;37136;43.614;3.908;2022-08-30T06:22:06;12.50;;;7.88;;
51090;SDS011;37136;43.614;3.908;2022-08-30T06:24:32;20.50;;;8.82;;
51090;SDS011;37136;43.614;3.908;2022-08-30T06:27:00;11.32;;;8.05;;
51090;SDS011;37136;43.614;3.908;2022-08-30T06:29:26;15.27;;;8.60;;
51090;SDS011;37136;43.614;3.908;2022-08-30T06:31:53;16.77;;;8.50;;
51090;SDS011;37136;43.614;3.908;2022-08-30T06:34:21;16.92;;;9.15;;
51090;SDS011;37136;43.614;3.908;2022-08-30T06:36:47;14.02;;;7.60;;
51090;SDS011;37136;43.614;3.908;2022-08-30T06:39:13;20.25;;;8.93;;
51090;SDS011;37136;43.614;3.908;2022-08-30T06:41:39;13.57;;;8.65;;
51090;SDS011;37136;43.614;3.908;2022-08-30T06:44:06;13.32;;;8.20;;
51090;SDS011;37136;43.614;3.908;2022-08-30T06:46:33;14.10;;;8.55;;
51090;SDS011;37136;43.614;3.908;2022-08-30T06:49:01;17.52;;;8.45;;
51090;SDS011;37136;43.614;3.908;2022-08-30T06:51:29;15.73;;;8.30;;
51090;SDS011;37136;43.614;3.908;2022-08-30T06:54:00;12.32;;;8.00;;
51090;SDS011;37136;43.614;3.908;2022-08-30T06:56:27;10.90;;;8.45;;
51090;SDS011;37136;43.614;3.908;2022-08-30T06:58:53;10.13;;;7.55;;
51090;SDS011;37136;43.614;3.908;2022-08-30T07:01:25;14.60;;;7.40;;
51090;SDS011;37136;43.614;3.908;2022-08-30T07:03:52;16.50;;;7.20;;
51090;SDS011;37136;43.614;3.908;2022-08-30T07:06:19;12.27;;;6.78;;
51090;SDS011;37136;43.614;3.908;2022-08-30T07:08:46;17.70;;;6.97;;
51090;SDS011;37136;43.614;3.908;2022-08-30T07:11:14;10.23;;;6.40;;
51090;SDS011;37136;43.614;3.908;2022-08-30T07:13:40;9.90;;;5.93;;
51090;SDS011;37136;43.614;3.908;2022-08-30T07:16:12;9.52;;;6.22;;
51090;SDS011;37136;43.614;3.908;2022-08-30T07:18:39;14.07;;;6.35;;
51090;SDS011;37136;43.614;3.908;2022-08-30T07:21:27;10.95;;;5.43;;
51090;SDS011;37136;43.614;3.908;2022-08-30T07:23:58;9.98;;;5.72;;
51090;SDS011;37136;43.614;3.908;2022-08-30T07:26:40;8.02;;;4.57;;
51090;SDS011;37136;43.614;3.908;2022-08-30T07:29:14;9.05;;;5.60;;
51090;SDS011;37136;43.614;3.908;2022-08-30T07:31:40;13.82;;;6.50;;
51090;SDS011;37136;43.614;3.908;2022-08-30T07:34:06;8.70;;;5.82;;
51090;SDS011;37136;43.614;3.908;2022-08-30T07:36:33;15.13;;;6.65;;
51090;SDS011;37136;43.614;3.908;2022-08-30T07:39:00;13.25;;;6.80;;
51090;SDS011;37136;43.614;3.908;2022-08-30T07:41:28;12.45;;;8.38;;
51090;SDS011;37136;43.614;3.908;2022-08-30T07:43:56;11.43;;;7.43;;
51090;SDS011;37136;43.614;3.908;2022-08-30T07:46:23;12.73;;;7.07;;
51090;SDS011;37136;43.614;3.908;2022-08-30T07:48:49;11.55;;;6.90;;
51090;SDS011;37136;43.614;3.908;2022-08-30T07:51:19;13.23;;;7.60;;
51090;SDS011;37136;43.614;3.908;2022-08-30T07:53:46;12.98;;;7.05;;
51090;SDS011;37136;43.614;3.908;2022-08-30T07:56:13;11.38;;;6.50;;
51090;SDS011;37136;43.614;3.908;2022-08-30T07:58:40;14.18;;;7.10;;
51090;SDS011;37136;43.614;3.908;2022-08-30T08:01:06;14.32;;;6.93;;
51090;SDS011;37136;43.614;3.908;2022-08-30T08:03:34;12.05;;;6.93;;
51090;SDS011;37136;43.614;3.908;2022-08-30T08:06:02;16.20;;;7.63;;
51090;SDS011;37136;43.614;3.908;2022-08-30T08:08:28;11.20;;;7.73;;
51090;SDS011;37136;43.614;3.908;2022-08-30T08:10:55;9.60;;;7.88;;
51090;SDS011;37136;43.614;3.908;2022-08-30T08:13:21;10.20;;;6.95;;
51090;SDS011;37136;43.614;3.908;2022-08-30T08:15:47;11.10;;;7.80;;
51090;SDS011;37136;43.614;3.908;2022-08-30T08:18:14;13.10;;;7.95;;
51090;SDS011;37136;43.614;3.908;2022-08-30T08:20:39;10.52;;;7.65;;
51090;SDS011;37136;43.614;3.908;2022-08-30T08:23:06;13.20;;;8.73;;
51090;SDS011;37136;43.614;3.908;2022-08-30T08:25:32;11.43;;;7.47;;
51090;SDS011;37136;43.614;3.908;2022-08-30T08:28:01;9.73;;;7.93;;
51090;SDS011;37136;43.614;3.908;2022-08-30T08:30:27;10.55;;;7.22;;
51090;SDS011;37136;43.614;3.908;2022-08-30T08:32:53;15.32;;;7.35;;
51090;SDS011;37136;43.614;3.908;2022-08-30T08:35:19;12.07;;;8.00;;
51090;SDS011;37136;43.614;3.908;2022-08-30T08:37:45;9.93;;;7.35;;
51090;SDS011;37136;43.614;3.908;2022-08-30T08:40:12;10.23;;;7.38;;
51090;SDS011;37136;43.614;3.908;2022-08-30T08:48:22;15.20;;;7.75;;
51090;SDS011;37136;43.614;3.908;2022-08-30T08:50:58;9.52;;;7.22;;
51090;SDS011;37136;43.614;3.908;2022-08-30T08:53:48;13.90;;;6.88;;
51090;SDS011;37136;43.614;3.908;2022-08-30T08:56:20;13.20;;;7.55;;
51090;SDS011;37136;43.614;3.908;2022-08-30T08:58:53;9.95;;;7.18;;
51090;SDS011;37136;43.614;3.908;2022-08-30T09:01:23;13.65;;;6.68;;
51090;SDS011;37136;43.614;3.908;2022-08-30T09:03:54;10.63;;;6.68;;
51090;SDS011;37136;43.614;3.908;2022-08-30T09:09:24;10.63;;;6.93;;
51090;SDS011;37136;43.614;3.908;2022-08-30T09:11:54;14.77;;;6.63;;
51090;SDS011;37136;43.614;3.908;2022-08-30T09:14:27;10.75;;;6.38;;
51090;SDS011;37136;43.614;3.908;2022-08-30T09:17:01;12.43;;;6.00;;
51090;SDS011;37136;43.614;3.908;2022-08-30T09:19:30;10.07;;;7.13;;
51090;SDS011;37136;43.614;3.908;2022-08-30T09:21:57;19.70;;;7.07;;
51090;SDS011;37136;43.614;3.908;2022-08-30T09:24:24;10.32;;;6.35;;
51090;SDS011;37136;43.614;3.908;2022-08-30T09:26:50;9.50;;;6.57;;
51090;SDS011;37136;43.614;3.908;2022-08-30T09:29:16;8.18;;;6.10;;
51090;SDS011;37136;43.614;3.908;2022-08-30T09:31:50;14.73;;;6.40;;
51090;SDS011;37136;43.614;3.908;2022-08-30T09:34:21;15.38;;;6.78;;
51090;SDS011;37136;43.614;3.908;2022-08-30T09:36:49;15.57;;;6.70;;
51090;SDS011;37136;43.614;3.908;2022-08-30T09:39:18;11.00;;;6.85;;
51090;SDS011;37136;43.614;3.908;2022-08-30T09:41:51;13.55;;;6.35;;
51090;SDS011;37136;43.614;3.908;2022-08-30T09:44:18;7.32;;;5.63;;
51090;SDS011;37136;43.614;3.908;2022-08-30T10:12:12;13.35;;;7.68;;
51090;SDS011;37136;43.614;3.908;2022-08-30T10:28:21;8.88;;;6.47;;
51090;SDS011;37136;43.614;3.908;2022-08-30T10:31:04;16.42;;;6.85;;
51090;SDS011;37136;43.614;3.908;2022-08-30T10:33:37;14.10;;;7.05;;
51090;SDS011;37136;43.614;3.908;2022-08-30T10:36:08;15.55;;;6.35;;
51090;SDS011;37136;43.614;3.908;2022-08-30T10:38:54;14.88;;;6.60;;
51090;SDS011;37136;43.614;3.908;2022-08-30T10:44:24;12.80;;;6.63;;
51090;SDS011;37136;43.614;3.908;2022-08-30T10:49:22;9.25;;;5.80;;
51090;SDS011;37136;43.614;3.908;2022-08-30T10:51:54;15.70;;;6.97;;
51090;SDS011;37136;43.614;3.908;2022-08-30T10:56:56;15.90;;;6.43;;
51090;SDS011;37136;43.614;3.908;2022-08-30T10:59:22;11.63;;;6.75;;
51090;SDS011;37136;43.614;3.908;2022-08-30T11:04:48;11.02;;;6.05;;
51090;SDS011;37136;43.614;3.908;2022-08-30T11:13:15;14.10;;;5.75;;
51090;SDS011;37136;43.614;3.908;2022-08-30T11:15:52;12.93;;;5.95;;
51090;SDS011;37136;43.614;3.908;2022-08-30T11:18:25;9.90;;;6.63;;
51090;SDS011;37136;43.614;3.908;2022-08-30T11:23:54;12.55;;;5.88;;
51090;SDS011;37136;43.614;3.908;2022-08-30T11:29:26;13.73;;;6.50;;
51090;SDS011;37136;43.614;3.908;2022-08-30T11:31:56;19.80;;;6.18;;
51090;SDS011;37136;43.614;3.908;2022-08-30T11:37:10;31.15;;;8.52;;
51090;SDS011;37136;43.614;3.908;2022-08-30T11:39:58;13.43;;;6.43;;
51090;SDS011;37136;43.614;3.908;2022-08-30T11:42:29;16.30;;;6.72;;
51090;SDS011;37136;43.614;3.908;2022-08-30T11:47:53;14.60;;;6.90;;
51090;SDS011;37136;43.614;3.908;2022-08-30T11:53:07;12.27;;;5.95;;
51090;SDS011;37136;43.614;3.908;2022-08-30T12:04:02;21.08;;;6.28;;
51090;SDS011;37136;43.614;3.908;2022-08-30T12:14:32;16.20;;;7.90;;
51090;SDS011;37136;43.614;3.908;2022-08-30T12:20:14;17.40;;;6.78;;
51090;SDS011;37136;43.614;3.908;2022-08-30T12:22:46;16.40;;;7.72;;
51090;SDS011;37136;43.614;3.908;2022-08-30T12:33:52;13.68;;;6.57;;
51090;SDS011;37136;43.614;3.908;2022-08-30T12:36:47;16.80;;;6.13;;
51090;SDS011;37136;43.614;3.908;2022-08-30T12:39:14;13.27;;;6.10;;
51090;SDS011;37136;43.614;3.908;2022-08-30T12:41:43;14.88;;;6.38;;
51090;SDS011;37136;43.614;3.908;2022-08-30T12:44:17;11.48;;;5.65;;
51090;SDS011;37136;43.614;3.908;2022-08-30T12:46:51;9.23;;;6.10;;
51090;SDS011;37136;43.614;3.908;2022-08-30T12:49:30;8.80;;;5.70;;
51090;SDS011;37136;43.614;3.908;2022-08-30T12:54:54;13.73;;;5.88;;
51090;SDS011;37136;43.614;3.908;2022-08-30T13:00:30;9.35;;;5.00;;
51090;SDS011;37136;43.614;3.908;2022-08-30T13:03:01;12.55;;;5.78;;
51090;SDS011;37136;43.614;3.908;2022-08-30T13:08:22;9.75;;;6.57;;
51090;SDS011;37136;43.614;3.908;2022-08-30T13:13:29;11.23;;;5.90;;
51090;SDS011;37136;43.614;3.908;2022-08-30T13:16:08;17.05;;;6.40;;
51090;SDS011;37136;43.614;3.908;2022-08-30T13:18:37;14.82;;;5.78;;
51090;SDS011;37136;43.614;3.908;2022-08-30T13:21:26;14.30;;;5.35;;
51090;SDS011;37136;43.614;3.908;2022-08-30T13:24:04;13.27;;;5.82;;
51090;SDS011;37136;43.614;3.908;2022-08-30T13:26:32;12.98;;;5.28;;
51090;SDS011;37136;43.614;3.908;2022-08-30T13:29:02;15.63;;;5.40;;
51090;SDS011;37136;43.614;3.908;2022-08-30T13:31:30;13.63;;;6.15;;
51090;SDS011;37136;43.614;3.908;2022-08-30T13:33:57;9.25;;;5.53;;
51090;SDS011;37136;43.614;3.908;2022-08-30T13:36:45;11.15;;;6.38;;
51090;SDS011;37136;43.614;3.908;2022-08-30T13:39:11;11.27;;;5.60;;
51090;SDS011;37136;43.614;3.908;2022-08-30T13:41:37;12.10;;;4.85;;
51090;SDS011;37136;43.614;3.908;2022-08-30T13:44:03;10.32;;;5.47;;
51090;SDS011;37136;43.614;3.908;2022-08-30T13:46:35;11.88;;;5.32;;
51090;SDS011;37136;43.614;3.908;2022-08-30T13:51:30;12.80;;;5.78;;
51090;SDS011;37136;43.614;3.908;2022-08-30T13:54:15;12.93;;;4.88;;
51090;SDS011;37136;43.614;3.908;2022-08-30T13:56:41;12.75;;;5.72;;
51090;SDS011;37136;43.614;3.908;2022-08-30T13:59:07;16.58;;;5.40;;
51090;SDS011;37136;43.614;3.908;2022-08-30T14:01:35;11.80;;;5.45;;
51090;SDS011;37136;43.614;3.908;2022-08-30T14:04:01;14.98;;;6.05;;
51090;SDS011;37136;43.614;3.908;2022-08-30T14:06:27;9.20;;;5.97;;
51090;SDS011;37136;43.614;3.908;2022-08-30T14:08:53;16.63;;;6.78;;
51090;SDS011;37136;43.614;3.908;2022-08-30T14:11:19;14.57;;;6.47;;
51090;SDS011;37136;43.614;3.908;2022-08-30T14:13:45;14.13;;;6.78;;
51090;SDS011;37136;43.614;3.908;2022-08-30T14:16:11;10.30;;;6.18;;
51090;SDS011;37136;43.614;3.908;2022-08-30T14:18:40;12.00;;;5.97;;
51090;SDS011;37136;43.614;3.908;2022-08-30T14:21:29;11.85;;;5.95;;
51090;SDS011;37136;43.614;3.908;2022-08-30T14:23:55;14.20;;;6.95;;
51090;SDS011;37136;43.614;3.908;2022-08-30T14:26:24;15.55;;;7.75;;
51090;SDS011;37136;43.614;3.908;2022-08-30T14:28:58;13.98;;;7.43;;
51090;SDS011;37136;43.614;3.908;2022-08-30T14:31:25;11.77;;;6.38;;
51090;SDS011;37136;43.614;3.908;2022-08-30T14:33:51;13.15;;;6.93;;
51090;SDS011;37136;43.614;3.908;2022-08-30T14:36:17;9.98;;;7.05;;
51090;SDS011;37136;43.614;3.908;2022-08-30T14:38:44;19.67;;;7.43;;
51090;SDS011;37136;43.614;3.908;2022-08-30T14:41:10;15.48;;;7.05;;
51090;SDS011;37136;43.614;3.908;2022-08-30T14:43:35;12.00;;;7.43;;
51090;SDS011;37136;43.614;3.908;2022-08-30T14:46:04;15.95;;;7.22;;
51090;SDS011;37136;43.614;3.908;2022-08-30T14:48:30;15.77;;;6.82;;
51090;SDS011;37136;43.614;3.908;2022-08-30T14:50:56;12.27;;;6.97;;
51090;SDS011;37136;43.614;3.908;2022-08-30T14:53:21;14.63;;;7.20;;
51090;SDS011;37136;43.614;3.908;2022-08-30T14:55:47;12.07;;;7.18;;
51090;SDS011;37136;43.614;3.908;2022-08-30T14:58:13;18.05;;;7.28;;
51090;SDS011;37136;43.614;3.908;2022-08-30T15:00:42;12.63;;;6.63;;
51090;SDS011;37136;43.614;3.908;2022-08-30T15:03:13;14.48;;;6.95;;
51090;SDS011;37136;43.614;3.908;2022-08-30T15:05:39;14.05;;;6.03;;
51090;SDS011;37136;43.614;3.908;2022-08-30T15:08:06;14.63;;;6.22;;
51090;SDS011;37136;43.614;3.908;2022-08-30T15:10:32;14.43;;;6.22;;
51090;SDS011;37136;43.614;3.908;2022-08-30T15:12:57;11.20;;;6.18;;
51090;SDS011;37136;43.614;3.908;2022-08-30T15:15:23;8.38;;;5.88;;
51090;SDS011;37136;43.614;3.908;2022-08-30T15:17:49;11.82;;;6.32;;
51090;SDS011;37136;43.614;3.908;2022-08-30T15:20:15;11.43;;;6.40;;
51090;SDS011;37136;43.614;3.908;2022-08-30T15:22:44;9.23;;;5.40;;
51090;SDS011;37136;43.614;3.908;2022-08-30T15:25:10;8.10;;;5.40;;
51090;SDS011;37136;43.614;3.908;2022-08-30T15:27:37;11.60;;;5.95;;
51090;SDS011;37136;43.614;3.908;2022-08-30T15:30:03;11.02;;;5.75;;
51090;SDS011;37136;43.614;3.908;2022-08-30T15:32:30;11.35;;;5.38;;
51090;SDS011;37136;43.614;3.908;2022-08-30T15:34:56;12.48;;;5.55;;
51090;SDS011;37136;43.614;3.908;2022-08-30T15:37:24;10.67;;;5.40;;
51090;SDS011;37136;43.614;3.908;2022-08-30T15:39:50;10.10;;;6.13;;
51090;SDS011;37136;43.614;3.908;2022-08-30T15:42:17;8.52;;;5.85;;
51090;SDS011;37136;43.614;3.908;2022-08-30T15:44:49;14.65;;;6.47;;
51090;SDS011;37136;43.614;3.908;2022-08-30T15:47:19;11.52;;;6.03;;
51090;SDS011;37136;43.614;3.908;2022-08-30T15:50:00;10.10;;;5.50;;
51090;SDS011;37136;43.614;3.908;2022-08-30T15:52:28;8.57;;;4.93;;
51090;SDS011;37136;43.614;3.908;2022-08-30T15:54:54;10.45;;;5.22;;
51090;SDS011;37136;43.614;3.908;2022-08-30T15:57:21;12.30;;;4.93;;
51090;SDS011;37136;43.614;3.908;2022-08-30T15:59:47;7.43;;;4.43;;
51090;SDS011;37136;43.614;3.908;2022-08-30T16:02:13;12.40;;;4.55;;
51090;SDS011;37136;43.614;3.908;2022-08-30T16:04:39;11.82;;;5.03;;
51090;SDS011;37136;43.614;3.908;2022-08-30T16:07:05;7.97;;;4.18;;
51090;SDS011;37136;43.614;3.908;2022-08-30T16:09:32;7.03;;;4.07;;
51090;SDS011;37136;43.614;3.908;2022-08-30T16:12:00;9.60;;;4.63;;
51090;SDS011;37136;43.614;3.908;2022-08-30T16:14:26;8.05;;;4.30;;
51090;SDS011;37136;43.614;3.908;2022-08-30T16:16:53;8.77;;;3.30;;
51090;SDS011;37136;43.614;3.908;2022-08-30T16:19:19;8.30;;;2.88;;
51090;SDS011;37136;43.614;3.908;2022-08-30T16:21:45;4.18;;;2.00;;
51090;SDS011;37136;43.614;3.908;2022-08-30T16:24:11;4.05;;;2.38;;
51090;SDS011;37136;43.614;3.908;2022-08-30T16:26:37;6.25;;;2.83;;
51090;SDS011;37136;43.614;3.908;2022-08-30T16:29:05;4.20;;;2.92;;
51090;SDS011;37136;43.614;3.908;2022-08-30T16:58:04;12.60;;;3.70;;
51090;SDS011;37136;43.614;3.908;2022-08-30T17:00:32;9.50;;;3.83;;
51090;SDS011;37136;43.614;3.908;2022-08-30T17:02:59;12.20;;;4.63;;
51090;SDS011;37136;43.614;3.908;2022-08-30T17:05:25;7.78;;;4.13;;
51090;SDS011;37136;43.614;3.908;2022-08-30T17:07:51;6.10;;;3.67;;
51090;SDS011;37136;43.614;3.908;2022-08-30T17:10:17;7.70;;;4.45;;
51090;SDS011;37136;43.614;3.908;2022-08-30T17:12:47;8.40;;;4.30;;